Terminal Aerodrome Forecast
Issued by NWS

Home | Current Version | Previous Version | Text Only | Print | Product List | Glossary On
Versions: 1 2 3 4 5 6 7 8 9 10 11 12 13 14 15 16 17 18 19 20 21 22 23 24 25
000
FTUS42 KFFC 180524
TAFPDK
TAF
KPDK 180524Z 1806/1906 30010KT P6SM -SHRA SCT012 BKN030
      TEMPO 1806/1809 6SM -SHRA BKN012
     FM180900 33008KT P6SM BKN010 BKN030
     FM181400 02005KT P6SM SCT012 BKN040
     FM181700 09005KT P6SM BKN025
     FM190100 11007KT P6SM OVC010
     FM190300 12007KT 6SM -DZ BR OVC008=

USA.gov is the U.S. government's official web portal to all federal, state and local government web resources and services.